Mid-Ohio Valley Regional Airport

Airport
ICAO code: 
KPKB
Summary
ICAO Region: 
NAM
Territory: 
Location: 
Parkersburg, West Virginia,
Coordinates: 
Aerial View: 
39° 20' 42.791" N, 81° 26' 6.894" W
Airport BS: 
Bird Strike
Airport WX: 
Cumulonimbus
Metar
Observation
KPKB 021453Z 21014G22KT 10SM FEW025 BKN100 13/08 A2985 RMK AO2 SLP107 T01280078 56010
Station
Parkersburg, Mid-Ohio Valley Regional Airport
Date/Time
2021-12-02 14:53:00
Wind direction
210°
Wind speed
14 kts
Lowest cloud amount
few clouds
Temperature
12.8°C
Dew point
7.8°C
Humidity
71%
Weather condition
n/a

Description

Mid-Ohio Valley Regional Airport is a public use airport located 11 km northeast of the central business district of Parkersburg, a city in Wood County, West Virginia.

Climatology

Humid “subtropical” climate (Köppen climate classification Cfa) - characterized by hot, humid summers and cool winters. Significant amounts of precipitation occur in all seasons in most areas. Winter rainfall (and sometimes snowfall) is associated with large storms that the westerlies steer from west to east. Most summer rainfall occurs during thunderstorms.

Runways

Designator Length Width Surface Rops
10/28 1219 46 ASP Yes/Yes
3/21 2067 46 ASP Yes/Yes
Airport map: 
Aerial View: 

SKYbrary Partners:

Safety knowledge contributed by: